sensor_id;sensor_type;location;lat;lon;timestamp;P1;durP1;ratioP1;P2;durP2;ratioP2
13112;SDS011;6622;49.752;6.100;2022-07-15T00:02:16;5.50;;;2.37;;
13112;SDS011;6622;49.752;6.100;2022-07-15T00:04:43;3.67;;;2.13;;
13112;SDS011;6622;49.752;6.100;2022-07-15T00:07:09;2.67;;;1.87;;
13112;SDS011;6622;49.752;6.100;2022-07-15T00:09:37;3.10;;;1.97;;
13112;SDS011;6622;49.752;6.100;2022-07-15T00:12:22;5.00;;;2.00;;
13112;SDS011;6622;49.752;6.100;2022-07-15T00:14:48;2.17;;;1.77;;
13112;SDS011;6622;49.752;6.100;2022-07-15T00:17:15;3.43;;;1.67;;
13112;SDS011;6622;49.752;6.100;2022-07-15T00:19:42;5.70;;;1.97;;
13112;SDS011;6622;49.752;6.100;2022-07-15T00:22:09;3.43;;;1.90;;
13112;SDS011;6622;49.752;6.100;2022-07-15T00:24:36;4.03;;;2.37;;
13112;SDS011;6622;49.752;6.100;2022-07-15T00:27:02;3.50;;;1.83;;
13112;SDS011;6622;49.752;6.100;2022-07-15T00:29:29;3.37;;;1.87;;
13112;SDS011;6622;49.752;6.100;2022-07-15T00:31:55;4.00;;;1.97;;
13112;SDS011;6622;49.752;6.100;2022-07-15T00:34:22;2.73;;;1.90;;
13112;SDS011;6622;49.752;6.100;2022-07-15T00:36:49;3.10;;;1.70;;
13112;SDS011;6622;49.752;6.100;2022-07-15T00:39:15;2.73;;;1.63;;
13112;SDS011;6622;49.752;6.100;2022-07-15T00:41:42;3.47;;;1.80;;
13112;SDS011;6622;49.752;6.100;2022-07-15T00:44:09;2.60;;;2.10;;
13112;SDS011;6622;49.752;6.100;2022-07-15T00:46:35;2.23;;;1.87;;
13112;SDS011;6622;49.752;6.100;2022-07-15T00:49:02;3.73;;;2.30;;
13112;SDS011;6622;49.752;6.100;2022-07-15T00:51:32;2.77;;;1.60;;
13112;SDS011;6622;49.752;6.100;2022-07-15T00:53:56;2.07;;;1.53;;
13112;SDS011;6622;49.752;6.100;2022-07-15T00:56:23;2.97;;;1.80;;
13112;SDS011;6622;49.752;6.100;2022-07-15T00:58:49;2.40;;;1.83;;
13112;SDS011;6622;49.752;6.100;2022-07-15T01:01:18;2.20;;;1.57;;
13112;SDS011;6622;49.752;6.100;2022-07-15T01:03:43;3.00;;;1.90;;
13112;SDS011;6622;49.752;6.100;2022-07-15T01:06:10;5.33;;;1.90;;
13112;SDS011;6622;49.752;6.100;2022-07-15T01:08:36;3.23;;;2.03;;
13112;SDS011;6622;49.752;6.100;2022-07-15T01:11:03;1.43;;;1.33;;
13112;SDS011;6622;49.752;6.100;2022-07-15T01:13:30;2.83;;;1.90;;
13112;SDS011;6622;49.752;6.100;2022-07-15T01:15:56;4.70;;;1.83;;
13112;SDS011;6622;49.752;6.100;2022-07-15T01:18:23;2.37;;;1.57;;
13112;SDS011;6622;49.752;6.100;2022-07-15T01:20:49;3.17;;;1.70;;
13112;SDS011;6622;49.752;6.100;2022-07-15T01:23:16;4.27;;;1.87;;
13112;SDS011;6622;49.752;6.100;2022-07-15T01:25:43;4.90;;;1.97;;
13112;SDS011;6622;49.752;6.100;2022-07-15T01:28:10;4.23;;;1.90;;
13112;SDS011;6622;49.752;6.100;2022-07-15T01:30:37;4.73;;;2.33;;
13112;SDS011;6622;49.752;6.100;2022-07-15T01:33:03;2.53;;;1.97;;
13112;SDS011;6622;49.752;6.100;2022-07-15T01:35:30;2.40;;;2.20;;
13112;SDS011;6622;49.752;6.100;2022-07-15T01:37:57;4.93;;;2.23;;
13112;SDS011;6622;49.752;6.100;2022-07-15T01:40:24;6.83;;;2.10;;
13112;SDS011;6622;49.752;6.100;2022-07-15T01:42:51;4.00;;;2.17;;
13112;SDS011;6622;49.752;6.100;2022-07-15T01:45:17;2.80;;;2.00;;
13112;SDS011;6622;49.752;6.100;2022-07-15T01:47:46;2.47;;;2.13;;
13112;SDS011;6622;49.752;6.100;2022-07-15T01:50:11;3.63;;;2.10;;
13112;SDS011;6622;49.752;6.100;2022-07-15T01:52:38;4.23;;;2.03;;
13112;SDS011;6622;49.752;6.100;2022-07-15T01:55:05;3.85;;;2.40;;
13112;SDS011;6622;49.752;6.100;2022-07-15T01:57:31;6.53;;;2.30;;
13112;SDS011;6622;49.752;6.100;2022-07-15T01:59:58;3.03;;;2.07;;
13112;SDS011;6622;49.752;6.100;2022-07-15T02:02:25;3.20;;;1.87;;
13112;SDS011;6622;49.752;6.100;2022-07-15T02:04:51;3.73;;;1.90;;
13112;SDS011;6622;49.752;6.100;2022-07-15T02:07:18;3.22;;;2.20;;
13112;SDS011;6622;49.752;6.100;2022-07-15T02:09:44;3.60;;;2.10;;
13112;SDS011;6622;49.752;6.100;2022-07-15T02:12:11;2.47;;;2.10;;
13112;SDS011;6622;49.752;6.100;2022-07-15T02:14:38;5.57;;;1.90;;
13112;SDS011;6622;49.752;6.100;2022-07-15T02:17:04;4.60;;;2.37;;
13112;SDS011;6622;49.752;6.100;2022-07-15T02:19:31;2.03;;;1.80;;
13112;SDS011;6622;49.752;6.100;2022-07-15T02:21:58;2.00;;;1.77;;
13112;SDS011;6622;49.752;6.100;2022-07-15T02:24:24;2.70;;;2.03;;
13112;SDS011;6622;49.752;6.100;2022-07-15T02:26:51;3.42;;;2.30;;
13112;SDS011;6622;49.752;6.100;2022-07-15T02:29:17;4.70;;;1.90;;
13112;SDS011;6622;49.752;6.100;2022-07-15T02:31:44;2.03;;;1.67;;
13112;SDS011;6622;49.752;6.100;2022-07-15T02:34:11;2.60;;;1.90;;
13112;SDS011;6622;49.752;6.100;2022-07-15T02:36:38;3.10;;;2.23;;
13112;SDS011;6622;49.752;6.100;2022-07-15T02:39:05;2.20;;;1.90;;
13112;SDS011;6622;49.752;6.100;2022-07-15T02:41:31;1.90;;;1.60;;
13112;SDS011;6622;49.752;6.100;2022-07-15T02:43:58;3.03;;;1.77;;
13112;SDS011;6622;49.752;6.100;2022-07-15T02:46:25;3.10;;;1.90;;
13112;SDS011;6622;49.752;6.100;2022-07-15T02:48:52;1.90;;;1.70;;
13112;SDS011;6622;49.752;6.100;2022-07-15T02:51:19;2.47;;;1.80;;
13112;SDS011;6622;49.752;6.100;2022-07-15T02:53:45;3.30;;;1.80;;
13112;SDS011;6622;49.752;6.100;2022-07-15T02:56:12;2.80;;;2.07;;
13112;SDS011;6622;49.752;6.100;2022-07-15T02:58:39;4.40;;;1.77;;
13112;SDS011;6622;49.752;6.100;2022-07-15T03:01:06;3.00;;;2.17;;
13112;SDS011;6622;49.752;6.100;2022-07-15T03:03:33;4.23;;;2.23;;
13112;SDS011;6622;49.752;6.100;2022-07-15T03:05:59;2.13;;;1.83;;
13112;SDS011;6622;49.752;6.100;2022-07-15T03:08:27;5.87;;;2.10;;
13112;SDS011;6622;49.752;6.100;2022-07-15T03:10:53;3.97;;;2.30;;
13112;SDS011;6622;49.752;6.100;2022-07-15T03:13:20;4.43;;;2.17;;
13112;SDS011;6622;49.752;6.100;2022-07-15T03:15:47;3.10;;;2.43;;
13112;SDS011;6622;49.752;6.100;2022-07-15T03:18:14;2.10;;;1.90;;
13112;SDS011;6622;49.752;6.100;2022-07-15T03:20:40;3.63;;;2.20;;
13112;SDS011;6622;49.752;6.100;2022-07-15T03:23:07;3.40;;;2.20;;
13112;SDS011;6622;49.752;6.100;2022-07-15T03:25:34;5.53;;;2.20;;
13112;SDS011;6622;49.752;6.100;2022-07-15T03:28:01;2.50;;;1.93;;
13112;SDS011;6622;49.752;6.100;2022-07-15T03:30:28;2.73;;;2.10;;
13112;SDS011;6622;49.752;6.100;2022-07-15T03:32:54;2.00;;;1.73;;
13112;SDS011;6622;49.752;6.100;2022-07-15T03:35:21;5.93;;;2.17;;
13112;SDS011;6622;49.752;6.100;2022-07-15T03:37:48;2.73;;;2.00;;
13112;SDS011;6622;49.752;6.100;2022-07-15T03:40:14;1.83;;;1.63;;
13112;SDS011;6622;49.752;6.100;2022-07-15T03:42:41;3.13;;;1.87;;
13112;SDS011;6622;49.752;6.100;2022-07-15T03:45:08;3.57;;;2.17;;
13112;SDS011;6622;49.752;6.100;2022-07-15T03:47:34;3.10;;;2.00;;
13112;SDS011;6622;49.752;6.100;2022-07-15T03:50:01;4.03;;;1.90;;
13112;SDS011;6622;49.752;6.100;2022-07-15T03:52:27;3.60;;;1.93;;
13112;SDS011;6622;49.752;6.100;2022-07-15T03:54:54;2.60;;;1.97;;
13112;SDS011;6622;49.752;6.100;2022-07-15T03:57:21;6.07;;;2.10;;
13112;SDS011;6622;49.752;6.100;2022-07-15T03:59:47;5.20;;;2.23;;
13112;SDS011;6622;49.752;6.100;2022-07-15T04:02:14;5.23;;;2.13;;
13112;SDS011;6622;49.752;6.100;2022-07-15T04:04:41;4.27;;;2.13;;
13112;SDS011;6622;49.752;6.100;2022-07-15T04:07:08;3.10;;;1.70;;
13112;SDS011;6622;49.752;6.100;2022-07-15T04:09:35;2.97;;;1.73;;
13112;SDS011;6622;49.752;6.100;2022-07-15T04:12:01;2.10;;;1.57;;
13112;SDS011;6622;49.752;6.100;2022-07-15T04:14:28;2.80;;;1.70;;
13112;SDS011;6622;49.752;6.100;2022-07-15T04:16:54;2.97;;;1.90;;
13112;SDS011;6622;49.752;6.100;2022-07-15T04:19:21;4.33;;;1.70;;
13112;SDS011;6622;49.752;6.100;2022-07-15T04:21:48;3.80;;;1.87;;
13112;SDS011;6622;49.752;6.100;2022-07-15T04:24:14;5.47;;;1.93;;
13112;SDS011;6622;49.752;6.100;2022-07-15T04:26:41;4.27;;;2.10;;
13112;SDS011;6622;49.752;6.100;2022-07-15T04:29:08;5.10;;;2.00;;
13112;SDS011;6622;49.752;6.100;2022-07-15T04:31:35;5.20;;;1.73;;
13112;SDS011;6622;49.752;6.100;2022-07-15T04:34:02;3.13;;;1.77;;
13112;SDS011;6622;49.752;6.100;2022-07-15T04:36:28;3.80;;;1.90;;
13112;SDS011;6622;49.752;6.100;2022-07-15T04:38:55;5.23;;;2.10;;
13112;SDS011;6622;49.752;6.100;2022-07-15T04:41:22;5.90;;;2.17;;
13112;SDS011;6622;49.752;6.100;2022-07-15T04:43:49;4.13;;;2.10;;
13112;SDS011;6622;49.752;6.100;2022-07-15T04:46:15;4.50;;;2.20;;
13112;SDS011;6622;49.752;6.100;2022-07-15T04:48:43;5.17;;;2.20;;
13112;SDS011;6622;49.752;6.100;2022-07-15T04:51:28;3.50;;;2.33;;
13112;SDS011;6622;49.752;6.100;2022-07-15T04:53:54;4.40;;;1.73;;
13112;SDS011;6622;49.752;6.100;2022-07-15T04:56:21;4.67;;;2.40;;
13112;SDS011;6622;49.752;6.100;2022-07-15T04:58:48;4.07;;;2.30;;
13112;SDS011;6622;49.752;6.100;2022-07-15T05:01:15;6.57;;;2.10;;
13112;SDS011;6622;49.752;6.100;2022-07-15T05:03:42;3.23;;;2.33;;
13112;SDS011;6622;49.752;6.100;2022-07-15T05:06:08;4.40;;;2.13;;
13112;SDS011;6622;49.752;6.100;2022-07-15T05:08:35;5.83;;;2.50;;
13112;SDS011;6622;49.752;6.100;2022-07-15T05:11:02;3.87;;;2.07;;
13112;SDS011;6622;49.752;6.100;2022-07-15T05:13:29;3.97;;;1.90;;
13112;SDS011;6622;49.752;6.100;2022-07-15T05:15:55;4.77;;;2.50;;
13112;SDS011;6622;49.752;6.100;2022-07-15T05:18:22;3.47;;;2.93;;
13112;SDS011;6622;49.752;6.100;2022-07-15T05:20:49;3.83;;;2.80;;
13112;SDS011;6622;49.752;6.100;2022-07-15T05:23:16;6.17;;;3.00;;
13112;SDS011;6622;49.752;6.100;2022-07-15T05:25:43;5.77;;;2.80;;
13112;SDS011;6622;49.752;6.100;2022-07-15T05:28:10;5.87;;;2.60;;
13112;SDS011;6622;49.752;6.100;2022-07-15T05:30:37;9.47;;;3.07;;
13112;SDS011;6622;49.752;6.100;2022-07-15T05:33:03;8.13;;;2.60;;
13112;SDS011;6622;49.752;6.100;2022-07-15T05:35:30;4.30;;;2.53;;
13112;SDS011;6622;49.752;6.100;2022-07-15T05:37:57;4.53;;;2.80;;
13112;SDS011;6622;49.752;6.100;2022-07-15T05:40:23;4.67;;;2.67;;
13112;SDS011;6622;49.752;6.100;2022-07-15T05:42:50;3.77;;;2.90;;
13112;SDS011;6622;49.752;6.100;2022-07-15T05:45:16;8.43;;;3.13;;
13112;SDS011;6622;49.752;6.100;2022-07-15T05:47:47;6.07;;;3.08;;
13112;SDS011;6622;49.752;6.100;2022-07-15T05:50:16;5.27;;;2.70;;
13112;SDS011;6622;49.752;6.100;2022-07-15T05:52:42;5.10;;;2.35;;
13112;SDS011;6622;49.752;6.100;2022-07-15T05:55:09;5.72;;;2.75;;
13112;SDS011;6622;49.752;6.100;2022-07-15T05:57:36;5.75;;;2.50;;
13112;SDS011;6622;49.752;6.100;2022-07-15T06:00:03;7.80;;;2.50;;
13112;SDS011;6622;49.752;6.100;2022-07-15T06:02:29;6.50;;;3.08;;
13112;SDS011;6622;49.752;6.100;2022-07-15T06:04:55;4.10;;;2.55;;
13112;SDS011;6622;49.752;6.100;2022-07-15T06:07:22;6.20;;;2.70;;
13112;SDS011;6622;49.752;6.100;2022-07-15T06:09:49;3.80;;;2.45;;
13112;SDS011;6622;49.752;6.100;2022-07-15T06:12:16;5.68;;;2.50;;
13112;SDS011;6622;49.752;6.100;2022-07-15T06:14:42;3.92;;;2.85;;
13112;SDS011;6622;49.752;6.100;2022-07-15T06:17:09;5.30;;;3.35;;
13112;SDS011;6622;49.752;6.100;2022-07-15T06:19:35;5.45;;;2.83;;
13112;SDS011;6622;49.752;6.100;2022-07-15T06:22:02;3.92;;;2.37;;
13112;SDS011;6622;49.752;6.100;2022-07-15T06:24:28;4.93;;;2.67;;
13112;SDS011;6622;49.752;6.100;2022-07-15T06:26:55;5.78;;;2.80;;
13112;SDS011;6622;49.752;6.100;2022-07-15T06:29:22;2.80;;;2.50;;
13112;SDS011;6622;49.752;6.100;2022-07-15T06:31:49;4.53;;;2.78;;
13112;SDS011;6622;49.752;6.100;2022-07-15T06:34:16;4.00;;;2.62;;
13112;SDS011;6622;49.752;6.100;2022-07-15T06:36:42;4.18;;;2.85;;
13112;SDS011;6622;49.752;6.100;2022-07-15T06:39:09;5.05;;;2.92;;
13112;SDS011;6622;49.752;6.100;2022-07-15T06:41:36;2.58;;;2.30;;
13112;SDS011;6622;49.752;6.100;2022-07-15T06:44:02;2.92;;;2.33;;
13112;SDS011;6622;49.752;6.100;2022-07-15T06:46:29;5.12;;;2.75;;
13112;SDS011;6622;49.752;6.100;2022-07-15T06:48:55;4.43;;;2.53;;
13112;SDS011;6622;49.752;6.100;2022-07-15T06:51:22;4.97;;;2.90;;
13112;SDS011;6622;49.752;6.100;2022-07-15T06:53:49;2.67;;;2.30;;
13112;SDS011;6622;49.752;6.100;2022-07-15T06:56:15;5.55;;;2.78;;
13112;SDS011;6622;49.752;6.100;2022-07-15T06:58:42;4.28;;;2.37;;
13112;SDS011;6622;49.752;6.100;2022-07-15T07:01:09;5.78;;;2.47;;
13112;SDS011;6622;49.752;6.100;2022-07-15T07:03:36;5.43;;;2.35;;
13112;SDS011;6622;49.752;6.100;2022-07-15T07:06:03;8.40;;;2.72;;
13112;SDS011;6622;49.752;6.100;2022-07-15T07:08:29;4.47;;;2.30;;
13112;SDS011;6622;49.752;6.100;2022-07-15T07:10:56;4.12;;;2.20;;
13112;SDS011;6622;49.752;6.100;2022-07-15T07:13:23;2.87;;;1.95;;
13112;SDS011;6622;49.752;6.100;2022-07-15T07:15:50;7.72;;;2.80;;
13112;SDS011;6622;49.752;6.100;2022-07-15T07:18:17;5.32;;;2.62;;
13112;SDS011;6622;49.752;6.100;2022-07-15T07:20:43;2.05;;;1.80;;
13112;SDS011;6622;49.752;6.100;2022-07-15T07:23:11;5.82;;;2.30;;
13112;SDS011;6622;49.752;6.100;2022-07-15T07:25:37;3.75;;;2.15;;
13112;SDS011;6622;49.752;6.100;2022-07-15T07:28:04;1.95;;;1.77;;
13112;SDS011;6622;49.752;6.100;2022-07-15T07:30:30;3.42;;;2.00;;
13112;SDS011;6622;49.752;6.100;2022-07-15T07:32:57;3.00;;;1.95;;
13112;SDS011;6622;49.752;6.100;2022-07-15T07:35:24;4.97;;;1.87;;
13112;SDS011;6622;49.752;6.100;2022-07-15T07:37:51;4.18;;;2.20;;
13112;SDS011;6622;49.752;6.100;2022-07-15T07:40:18;3.03;;;1.85;;
13112;SDS011;6622;49.752;6.100;2022-07-15T07:42:44;2.60;;;2.08;;
13112;SDS011;6622;49.752;6.100;2022-07-15T07:45:12;4.65;;;1.75;;
13112;SDS011;6622;49.752;6.100;2022-07-15T07:47:38;2.50;;;2.30;;
13112;SDS011;6622;49.752;6.100;2022-07-15T07:50:09;4.50;;;1.80;;
13112;SDS011;6622;49.752;6.100;2022-07-15T07:52:35;3.90;;;1.80;;
13112;SDS011;6622;49.752;6.100;2022-07-15T07:55:02;3.70;;;2.00;;
13112;SDS011;6622;49.752;6.100;2022-07-15T07:57:28;2.83;;;2.20;;
13112;SDS011;6622;49.752;6.100;2022-07-15T07:59:55;3.65;;;2.05;;
13112;SDS011;6622;49.752;6.100;2022-07-15T08:02:21;2.58;;;1.73;;
13112;SDS011;6622;49.752;6.100;2022-07-15T08:04:48;3.37;;;2.12;;
13112;SDS011;6622;49.752;6.100;2022-07-15T08:07:15;3.30;;;1.83;;
13112;SDS011;6622;49.752;6.100;2022-07-15T08:09:42;4.50;;;2.03;;
13112;SDS011;6622;49.752;6.100;2022-07-15T08:12:09;2.33;;;1.65;;
13112;SDS011;6622;49.752;6.100;2022-07-15T08:14:35;3.40;;;2.05;;
13112;SDS011;6622;49.752;6.100;2022-07-15T08:17:02;3.30;;;1.98;;
13112;SDS011;6622;49.752;6.100;2022-07-15T08:19:29;2.37;;;1.77;;
13112;SDS011;6622;49.752;6.100;2022-07-15T08:21:56;2.72;;;1.87;;
13112;SDS011;6622;49.752;6.100;2022-07-15T08:24:23;5.03;;;1.58;;
13112;SDS011;6622;49.752;6.100;2022-07-15T08:26:49;4.68;;;1.80;;
13112;SDS011;6622;49.752;6.100;2022-07-15T08:29:17;6.43;;;2.03;;
13112;SDS011;6622;49.752;6.100;2022-07-15T08:31:43;3.65;;;1.92;;
13112;SDS011;6622;49.752;6.100;2022-07-15T08:34:10;4.62;;;1.85;;
13112;SDS011;6622;49.752;6.100;2022-07-15T08:36:37;3.12;;;1.98;;
13112;SDS011;6622;49.752;6.100;2022-07-15T08:39:04;2.42;;;1.77;;
13112;SDS011;6622;49.752;6.100;2022-07-15T08:41:33;1.98;;;1.45;;
13112;SDS011;6622;49.752;6.100;2022-07-15T08:43:57;2.50;;;1.77;;
13112;SDS011;6622;49.752;6.100;2022-07-15T08:46:24;4.53;;;1.50;;
13112;SDS011;6622;49.752;6.100;2022-07-15T08:48:51;5.82;;;1.70;;
13112;SDS011;6622;49.752;6.100;2022-07-15T08:51:19;2.47;;;1.67;;
13112;SDS011;6622;49.752;6.100;2022-07-15T08:53:44;1.75;;;1.55;;
13112;SDS011;6622;49.752;6.100;2022-07-15T08:56:11;4.35;;;2.00;;
13112;SDS011;6622;49.752;6.100;2022-07-15T08:58:38;1.70;;;1.55;;
13112;SDS011;6622;49.752;6.100;2022-07-15T09:01:05;2.08;;;1.42;;
13112;SDS011;6622;49.752;6.100;2022-07-15T09:03:32;3.50;;;1.73;;
13112;SDS011;6622;49.752;6.100;2022-07-15T09:05:58;1.45;;;1.20;;
13112;SDS011;6622;49.752;6.100;2022-07-15T09:08:26;2.37;;;1.70;;
13112;SDS011;6622;49.752;6.100;2022-07-15T09:10:54;2.22;;;1.50;;
13112;SDS011;6622;49.752;6.100;2022-07-15T09:16:07;2.30;;;1.90;;
13112;SDS011;6622;49.752;6.100;2022-07-15T09:18:34;1.48;;;1.37;;
13112;SDS011;6622;49.752;6.100;2022-07-15T09:21:03;2.00;;;1.30;;
13112;SDS011;6622;49.752;6.100;2022-07-15T09:23:29;2.70;;;1.40;;
13112;SDS011;6622;49.752;6.100;2022-07-15T09:26:41;2.25;;;1.23;;
13112;SDS011;6622;49.752;6.100;2022-07-15T09:28:34;1.77;;;1.10;;
13112;SDS011;6622;49.752;6.100;2022-07-15T09:30:49;3.30;;;1.50;;
13112;SDS011;6622;49.752;6.100;2022-07-15T09:33:35;1.73;;;1.55;;
13112;SDS011;6622;49.752;6.100;2022-07-15T09:36:08;3.37;;;1.77;;
13112;SDS011;6622;49.752;6.100;2022-07-15T09:38:40;3.50;;;1.35;;
13112;SDS011;6622;49.752;6.100;2022-07-15T09:41:09;1.42;;;1.33;;
13112;SDS011;6622;49.752;6.100;2022-07-15T09:43:49;2.97;;;1.25;;
13112;SDS011;6622;49.752;6.100;2022-07-15T09:46:12;1.30;;;1.20;;
13112;SDS011;6622;49.752;6.100;2022-07-15T09:48:40;1.67;;;1.30;;
13112;SDS011;6622;49.752;6.100;2022-07-15T09:51:06;2.70;;;1.20;;
13112;SDS011;6622;49.752;6.100;2022-07-15T09:53:33;1.48;;;1.33;;
13112;SDS011;6622;49.752;6.100;2022-07-15T09:56:00;1.75;;;1.20;;
13112;SDS011;6622;49.752;6.100;2022-07-15T09:58:27;2.17;;;1.20;;
13112;SDS011;6622;49.752;6.100;2022-07-15T10:00:54;2.45;;;1.42;;
13112;SDS011;6622;49.752;6.100;2022-07-15T10:03:20;1.30;;;1.20;;
13112;SDS011;6622;49.752;6.100;2022-07-15T10:05:47;2.17;;;1.10;;
13112;SDS011;6622;49.752;6.100;2022-07-15T10:08:14;2.25;;;1.40;;
13112;SDS011;6622;49.752;6.100;2022-07-15T10:10:41;1.73;;;1.10;;
13112;SDS011;6622;49.752;6.100;2022-07-15T10:27:09;1.70;;;1.40;;
13112;SDS011;6622;49.752;6.100;2022-07-15T10:31:34;1.55;;;1.20;;
13112;SDS011;6622;49.752;6.100;2022-07-15T10:39:15;1.73;;;1.20;;
13112;SDS011;6622;49.752;6.100;2022-07-15T10:41:50;2.47;;;1.30;;
13112;SDS011;6622;49.752;6.100;2022-07-15T10:44:17;2.80;;;1.20;;
13112;SDS011;6622;49.752;6.100;2022-07-15T10:46:43;1.90;;;1.27;;
13112;SDS011;6622;49.752;6.100;2022-07-15T10:54:50;2.87;;;1.60;;
13112;SDS011;6622;49.752;6.100;2022-07-15T10:56:31;1.98;;;1.33;;
13112;SDS011;6622;49.752;6.100;2022-07-15T10:59:16;3.33;;;1.40;;
13112;SDS011;6622;49.752;6.100;2022-07-15T11:01:39;2.03;;;1.40;;
13112;SDS011;6622;49.752;6.100;2022-07-15T11:12:18;2.45;;;1.33;;
13112;SDS011;6622;49.752;6.100;2022-07-15T11:14:42;1.70;;;1.30;;
13112;SDS011;6622;49.752;6.100;2022-07-15T11:17:13;1.40;;;1.00;;
13112;SDS011;6622;49.752;6.100;2022-07-15T11:19:39;2.08;;;1.10;;
13112;SDS011;6622;49.752;6.100;2022-07-15T11:22:07;2.08;;;0.93;;
13112;SDS011;6622;49.752;6.100;2022-07-15T11:24:34;2.28;;;1.05;;
13112;SDS011;6622;49.752;6.100;2022-07-15T11:26:59;1.23;;;1.05;;
13112;SDS011;6622;49.752;6.100;2022-07-15T11:29:26;3.37;;;1.15;;
13112;SDS011;6622;49.752;6.100;2022-07-15T11:31:52;3.12;;;1.12;;
13112;SDS011;6622;49.752;6.100;2022-07-15T11:34:19;1.20;;;1.10;;
13112;SDS011;6622;49.752;6.100;2022-07-15T11:36:45;5.18;;;1.12;;
13112;SDS011;6622;49.752;6.100;2022-07-15T11:39:26;1.25;;;1.10;;
13112;SDS011;6622;49.752;6.100;2022-07-15T11:41:50;0.80;;;0.80;;
13112;SDS011;6622;49.752;6.100;2022-07-15T11:44:24;2.25;;;1.00;;
13112;SDS011;6622;49.752;6.100;2022-07-15T11:46:57;1.20;;;1.10;;
13112;SDS011;6622;49.752;6.100;2022-07-15T11:49:36;2.42;;;1.00;;
13112;SDS011;6622;49.752;6.100;2022-07-15T11:52:03;2.35;;;1.00;;
13112;SDS011;6622;49.752;6.100;2022-07-15T11:54:29;1.48;;;1.00;;
13112;SDS011;6622;49.752;6.100;2022-07-15T11:56:59;2.28;;;1.02;;
13112;SDS011;6622;49.752;6.100;2022-07-15T11:59:24;1.35;;;1.00;;
13112;SDS011;6622;49.752;6.100;2022-07-15T12:02:04;2.20;;;0.98;;
13112;SDS011;6622;49.752;6.100;2022-07-15T12:04:31;1.15;;;0.90;;
13112;SDS011;6622;49.752;6.100;2022-07-15T12:06:57;1.48;;;1.00;;
13112;SDS011;6622;49.752;6.100;2022-07-15T12:09:24;1.25;;;0.90;;
13112;SDS011;6622;49.752;6.100;2022-07-15T12:11:50;2.08;;;1.00;;
13112;SDS011;6622;49.752;6.100;2022-07-15T12:14:21;2.45;;;0.90;;
13112;SDS011;6622;49.752;6.100;2022-07-15T12:16:50;1.92;;;0.90;;
13112;SDS011;6622;49.752;6.100;2022-07-15T12:19:14;5.30;;;1.10;;
13112;SDS011;6622;49.752;6.100;2022-07-15T12:21:40;1.73;;;1.10;;
13112;SDS011;6622;49.752;6.100;2022-07-15T12:29:18;0.90;;;0.80;;
13112;SDS011;6622;49.752;6.100;2022-07-15T12:31:51;1.65;;;0.90;;
13112;SDS011;6622;49.752;6.100;2022-07-15T12:34:17;1.55;;;0.77;;
13112;SDS011;6622;49.752;6.100;2022-07-15T12:36:44;1.15;;;0.80;;
13112;SDS011;6622;49.752;6.100;2022-07-15T12:39:15;1.92;;;0.75;;
13112;SDS011;6622;49.752;6.100;2022-07-15T12:41:38;1.35;;;0.80;;
13112;SDS011;6622;49.752;6.100;2022-07-15T12:44:04;2.15;;;1.10;;
13112;SDS011;6622;49.752;6.100;2022-07-15T12:52:20;1.10;;;0.70;;
13112;SDS011;6622;49.752;6.100;2022-07-15T12:54:46;1.40;;;1.00;;
13112;SDS011;6622;49.752;6.100;2022-07-15T12:57:46;1.02;;;0.90;;
13112;SDS011;6622;49.752;6.100;2022-07-15T12:59:49;1.48;;;0.80;;
13112;SDS011;6622;49.752;6.100;2022-07-15T13:02:16;2.08;;;0.82;;
13112;SDS011;6622;49.752;6.100;2022-07-15T13:04:43;0.80;;;0.65;;
13112;SDS011;6622;49.752;6.100;2022-07-15T13:07:09;1.92;;;0.75;;
13112;SDS011;6622;49.752;6.100;2022-07-15T13:09:37;2.70;;;0.90;;
13112;SDS011;6622;49.752;6.100;2022-07-15T13:12:03;1.37;;;1.00;;
13112;SDS011;6622;49.752;6.100;2022-07-15T13:14:30;1.00;;;0.77;;
13112;SDS011;6622;49.752;6.100;2022-07-15T13:16:57;1.40;;;1.05;;
13112;SDS011;6622;49.752;6.100;2022-07-15T13:19:23;1.05;;;0.90;;
13112;SDS011;6622;49.752;6.100;2022-07-15T13:21:50;1.23;;;1.00;;
13112;SDS011;6622;49.752;6.100;2022-07-15T13:24:16;1.55;;;0.88;;
13112;SDS011;6622;49.752;6.100;2022-07-15T13:26:43;0.93;;;0.70;;
13112;SDS011;6622;49.752;6.100;2022-07-15T13:29:10;1.00;;;0.90;;
13112;SDS011;6622;49.752;6.100;2022-07-15T13:31:36;1.75;;;0.82;;
13112;SDS011;6622;49.752;6.100;2022-07-15T13:34:03;2.30;;;0.70;;
13112;SDS011;6622;49.752;6.100;2022-07-15T13:36:30;2.80;;;0.93;;
13112;SDS011;6622;49.752;6.100;2022-07-15T13:38:56;1.33;;;1.00;;
13112;SDS011;6622;49.752;6.100;2022-07-15T13:41:23;1.95;;;0.70;;
13112;SDS011;6622;49.752;6.100;2022-07-15T13:43:49;1.23;;;0.85;;
13112;SDS011;6622;49.752;6.100;2022-07-15T13:46:16;1.67;;;1.17;;
13112;SDS011;6622;49.752;6.100;2022-07-15T13:48:43;1.50;;;1.00;;
13112;SDS011;6622;49.752;6.100;2022-07-15T13:51:09;3.20;;;0.85;;
13112;SDS011;6622;49.752;6.100;2022-07-15T13:53:49;1.12;;;0.70;;
13112;SDS011;6622;49.752;6.100;2022-07-15T13:56:15;2.37;;;0.80;;
13112;SDS011;6622;49.752;6.100;2022-07-15T13:58:41;1.92;;;1.27;;
13112;SDS011;6622;49.752;6.100;2022-07-15T14:01:08;1.12;;;0.80;;
13112;SDS011;6622;49.752;6.100;2022-07-15T14:03:35;0.80;;;0.80;;
13112;SDS011;6622;49.752;6.100;2022-07-15T14:06:01;1.27;;;0.90;;
13112;SDS011;6622;49.752;6.100;2022-07-15T14:08:28;0.82;;;0.80;;
13112;SDS011;6622;49.752;6.100;2022-07-15T14:10:54;1.58;;;0.80;;
13112;SDS011;6622;49.752;6.100;2022-07-15T14:13:21;1.35;;;0.75;;
13112;SDS011;6622;49.752;6.100;2022-07-15T14:15:48;1.85;;;0.90;;
13112;SDS011;6622;49.752;6.100;2022-07-15T14:18:14;2.20;;;1.00;;
13112;SDS011;6622;49.752;6.100;2022-07-15T14:20:41;1.48;;;0.93;;
13112;SDS011;6622;49.752;6.100;2022-07-15T14:23:08;1.60;;;0.85;;
13112;SDS011;6622;49.752;6.100;2022-07-15T14:25:34;1.85;;;0.95;;
13112;SDS011;6622;49.752;6.100;2022-07-15T14:28:01;1.45;;;0.88;;
13112;SDS011;6622;49.752;6.100;2022-07-15T14:30:27;2.92;;;0.90;;
13112;SDS011;6622;49.752;6.100;2022-07-15T14:32:54;1.12;;;0.80;;
13112;SDS011;6622;49.752;6.100;2022-07-15T14:35:21;1.02;;;0.82;;
13112;SDS011;6622;49.752;6.100;2022-07-15T14:37:47;1.10;;;0.90;;
13112;SDS011;6622;49.752;6.100;2022-07-15T14:40:14;2.12;;;1.00;;
13112;SDS011;6622;49.752;6.100;2022-07-15T14:42:41;2.67;;;0.90;;
13112;SDS011;6622;49.752;6.100;2022-07-15T14:45:07;1.10;;;0.90;;
13112;SDS011;6622;49.752;6.100;2022-07-15T14:47:34;2.22;;;0.80;;
13112;SDS011;6622;49.752;6.100;2022-07-15T14:50:01;1.05;;;0.62;;
13112;SDS011;6622;49.752;6.100;2022-07-15T14:52:27;2.62;;;0.90;;
13112;SDS011;6622;49.752;6.100;2022-07-15T14:54:54;1.30;;;0.60;;
13112;SDS011;6622;49.752;6.100;2022-07-15T14:57:20;1.55;;;0.62;;
13112;SDS011;6622;49.752;6.100;2022-07-15T14:59:47;1.80;;;0.90;;
13112;SDS011;6622;49.752;6.100;2022-07-15T15:02:14;1.17;;;0.70;;
13112;SDS011;6622;49.752;6.100;2022-07-15T15:04:41;1.75;;;0.60;;
13112;SDS011;6622;49.752;6.100;2022-07-15T15:07:08;1.62;;;0.68;;
13112;SDS011;6622;49.752;6.100;2022-07-15T15:09:34;1.15;;;0.70;;
13112;SDS011;6622;49.752;6.100;2022-07-15T15:12:01;0.50;;;0.50;;
13112;SDS011;6622;49.752;6.100;2022-07-15T15:14:28;1.45;;;0.68;;
13112;SDS011;6622;49.752;6.100;2022-07-15T15:16:55;1.58;;;0.73;;
13112;SDS011;6622;49.752;6.100;2022-07-15T15:19:22;1.20;;;0.77;;
13112;SDS011;6622;49.752;6.100;2022-07-15T15:21:48;0.90;;;0.60;;
13112;SDS011;6622;49.752;6.100;2022-07-15T15:24:16;2.00;;;0.77;;
13112;SDS011;6622;49.752;6.100;2022-07-15T15:26:42;1.12;;;0.80;;
13112;SDS011;6622;49.752;6.100;2022-07-15T15:29:09;2.75;;;0.70;;
13112;SDS011;6622;49.752;6.100;2022-07-15T15:31:35;2.28;;;0.95;;
13112;SDS011;6622;49.752;6.100;2022-07-15T15:34:03;3.25;;;1.73;;
13112;SDS011;6622;49.752;6.100;2022-07-15T15:36:29;1.25;;;0.60;;
13112;SDS011;6622;49.752;6.100;2022-07-15T15:38:56;0.68;;;0.40;;
13112;SDS011;6622;49.752;6.100;2022-07-15T15:41:23;1.33;;;0.80;;
13112;SDS011;6622;49.752;6.100;2022-07-15T15:43:49;1.25;;;0.50;;
13112;SDS011;6622;49.752;6.100;2022-07-15T15:46:17;2.00;;;0.70;;
13112;SDS011;6622;49.752;6.100;2022-07-15T15:48:43;1.27;;;0.60;;